Time;durP1;ratioP1;P1;durP2;ratioP2;P2;SDS_P1;SDS_P2;PMS_P1;PMS_P2;Temp;Humidity;BMP_temperature;BMP_pressure;BME280_temperature;BME280_humidity;BME280_pressure;Samples;Min_cycle;Max_cycle;Signal;HPM_P1;HPM_P2
2021/08/04 00:00:21;;;;;;;12.73;4.00;;;;;;;;;;5976263;23;20045;-48
2021/08/04 00:02:48;;;;;;;8.07;3.97;;;;;;;;;;5986557;23;20094;-47
2021/08/04 00:05:16;;;;;;;8.73;3.78;;;;;;;;;;5981860;23;20050;-52
2021/08/04 00:07:42;;;;;;;10.70;4.22;;;;;;;;;;6013206;23;20056;-49
2021/08/04 00:10:09;;;;;;;7.30;4.03;;;;;;;;;;5969418;23;20094;-50
2021/08/04 00:12:35;;;;;;;8.05;4.13;;;;;;;;;;6011762;23;20543;-50
2021/08/04 00:15:03;;;;;;;8.43;4.18;;;;;;;;;;5986925;23;20034;-53
2021/08/04 00:17:30;;;;;;;7.30;3.88;;;;;;;;;;6006212;23;20131;-48
2021/08/04 00:19:56;;;;;;;13.40;3.92;;;;;;;;;;5990525;23;20101;-52
2021/08/04 00:22:24;;;;;;;10.65;4.07;;;;;;;;;;5981308;23;20132;-52
2021/08/04 00:24:51;;;;;;;9.50;4.20;;;;;;;;;;5989372;23;20041;-47
2021/08/04 00:27:17;;;;;;;8.68;4.00;;;;;;;;;;6009220;23;20283;-51
2021/08/04 00:29:45;;;;;;;10.80;4.60;;;;;;;;;;5982362;23;20027;-48
2021/08/04 00:32:11;;;;;;;9.27;4.38;;;;;;;;;;5988012;23;20026;-48
2021/08/04 00:34:38;;;;;;;8.18;4.20;;;;;;;;;;5987226;23;20054;-52
2021/08/04 00:37:05;;;;;;;9.02;4.38;;;;;;;;;;5986903;23;20149;-50
2021/08/04 00:39:32;;;;;;;13.57;4.20;;;;;;;;;;6012412;23;20037;-50
2021/08/04 00:41:59;;;;;;;12.47;4.53;;;;;;;;;;5984628;23;20042;-52
2021/08/04 00:44:26;;;;;;;8.90;4.50;;;;;;;;;;5990507;23;20046;-50
2021/08/04 00:46:52;;;;;;;8.40;4.18;;;;;;;;;;5987268;23;20045;-51
2021/08/04 00:49:18;;;;;;;7.40;4.03;;;;;;;;;;6011661;23;20033;-49
2021/08/04 00:51:45;;;;;;;7.00;3.90;;;;;;;;;;5983881;23;20037;-48
2021/08/04 00:54:12;;;;;;;7.43;4.32;;;;;;;;;;5992739;23;20030;-50
2021/08/04 00:56:39;;;;;;;9.18;4.68;;;;;;;;;;5986402;23;20026;-53
2021/08/04 00:59:07;;;;;;;10.17;4.63;;;;;;;;;;5981100;23;20085;-53
2021/08/04 01:01:37;;;;;;;9.85;5.03;;;;;;;;;;5991423;23;20324;-51
2021/08/04 01:04:07;;;;;;;10.80;4.63;;;;;;;;;;5984840;23;20030;-52
2021/08/04 01:06:35;;;;;;;9.70;4.97;;;;;;;;;;6011256;23;20030;-49
2021/08/04 01:09:02;;;;;;;10.90;4.50;;;;;;;;;;5982932;23;20037;-47
2021/08/04 01:11:31;;;;;;;10.70;4.75;;;;;;;;;;5994833;23;20341;-47
2021/08/04 01:14:01;;;;;;;9.45;5.18;;;;;;;;;;5989702;23;20045;-47
2021/08/04 01:16:29;;;;;;;8.65;4.53;;;;;;;;;;5989495;23;20070;-49
2021/08/04 01:18:56;;;;;;;;;;;;;;;;;;5983645;23;20105;-51
2021/08/04 01:21:24;;;;;;;8.40;4.50;;;;;;;;;;5989544;23;19920;-48
2021/08/04 01:23:54;;;;;;;8.15;4.18;;;;;;;;;;6010843;23;20114;-49
2021/08/04 01:26:29;;;;;;;8.40;4.30;;;;;;;;;;5989804;23;20034;-49
2021/08/04 01:28:57;;;;;;;9.40;4.45;;;;;;;;;;5984576;23;20040;-49
2021/08/04 01:31:26;;;;;;;14.07;4.43;;;;;;;;;;5987181;23;20023;-47
2021/08/04 01:33:52;;;;;;;;;;;;;;;;;;5983372;23;20050;-49
2021/08/04 01:36:19;;;;;;;10.68;4.00;;;;;;;;;;5984165;24;19924;-49
2021/08/04 01:38:46;;;;;;;7.68;4.30;;;;;;;;;;6008914;23;20034;-51
2021/08/04 01:41:14;;;;;;;9.27;4.30;;;;;;;;;;6012289;23;20041;-51
2021/08/04 01:43:43;;;;;;;9.15;3.78;;;;;;;;;;5987034;23;20036;-52
2021/08/04 01:46:11;;;;;;;10.15;4.18;;;;;;;;;;6015566;23;20024;-49
2021/08/04 01:48:39;;;;;;;10.52;4.90;;;;;;;;;;5991544;23;20042;-47
2021/08/04 01:51:07;;;;;;;7.80;4.15;;;;;;;;;;6007606;23;20050;-50
2021/08/04 01:53:34;;;;;;;11.68;4.47;;;;;;;;;;6010861;23;20089;-50
2021/08/04 01:56:01;;;;;;;9.05;4.25;;;;;;;;;;5979452;23;20048;-50
2021/08/04 01:58:28;;;;;;;8.38;4.10;;;;;;;;;;5984579;23;20042;-50
2021/08/04 02:00:55;;;;;;;10.60;4.20;;;;;;;;;;6011969;23;20049;-52
2021/08/04 02:03:22;;;;;;;8.40;4.10;;;;;;;;;;5994151;23;20045;-46
2021/08/04 02:05:48;;;;;;;14.02;4.15;;;;;;;;;;5982842;23;20170;-52
2021/08/04 02:08:21;;;;;;;8.20;4.05;;;;;;;;;;5990555;23;20070;-53
2021/08/04 02:10:48;;;;;;;8.60;4.03;;;;;;;;;;5978662;23;20029;-49
2021/08/04 02:13:21;;;;;;;7.05;3.85;;;;;;;;;;5991383;23;20053;-49
2021/08/04 02:15:53;;;;;;;8.52;4.07;;;;;;;;;;5976777;23;20118;-50
2021/08/04 02:18:25;;;;;;;9.32;4.10;;;;;;;;;;5964696;23;20042;-50
2021/08/04 02:20:52;;;;;;;7.85;3.90;;;;;;;;;;5967662;23;20042;-50
2021/08/04 02:23:20;;;;;;;9.65;3.67;;;;;;;;;;5988048;23;20041;-50
2021/08/04 02:25:50;;;;;;;8.32;4.15;;;;;;;;;;5969845;23;20068;-50
2021/08/04 02:28:19;;;;;;;7.90;4.00;;;;;;;;;;5991710;23;20045;-49
2021/08/04 02:30:45;;;;;;;8.05;3.78;;;;;;;;;;5990289;23;20060;-50
2021/08/04 02:33:12;;;;;;;7.00;3.65;;;;;;;;;;5992063;23;20465;-51
2021/08/04 02:35:40;;;;;;;7.65;3.72;;;;;;;;;;5990345;23;20085;-52
2021/08/04 02:38:06;;;;;;;9.48;4.15;;;;;;;;;;5965039;23;20031;-48
2021/08/04 02:40:33;;;;;;;7.50;3.97;;;;;;;;;;5995256;23;20038;-47
2021/08/04 02:43:00;;;;;;;10.10;4.13;;;;;;;;;;5987845;23;20034;-47
2021/08/04 02:45:32;;;;;;;7.32;3.70;;;;;;;;;;5989464;23;20038;-48
2021/08/04 02:47:59;;;;;;;8.50;3.92;;;;;;;;;;6004358;23;20393;-51
2021/08/04 02:50:26;;;;;;;12.30;4.80;;;;;;;;;;5964602;23;20035;-49
2021/08/04 02:52:54;;;;;;;9.55;4.15;;;;;;;;;;5981935;23;20049;-49
2021/08/04 02:55:20;;;;;;;9.40;4.63;;;;;;;;;;5993523;23;20030;-51
2021/08/04 02:57:47;;;;;;;8.57;4.18;;;;;;;;;;5973566;23;20052;-48
2021/08/04 03:00:14;;;;;;;10.73;4.35;;;;;;;;;;5966044;24;20120;-49
2021/08/04 03:02:41;;;;;;;8.35;4.13;;;;;;;;;;5963466;24;20042;-50
2021/08/04 03:05:08;;;;;;;8.63;4.28;;;;;;;;;;5965456;24;20026;-49
2021/08/04 03:07:34;;;;;;;11.68;3.90;;;;;;;;;;5971483;23;20045;-48
2021/08/04 03:10:02;;;;;;;9.27;3.83;;;;;;;;;;5984821;23;20136;-51
2021/08/04 03:12:29;;;;;;;10.43;4.47;;;;;;;;;;5967053;24;20123;-52
2021/08/04 03:14:56;;;;;;;7.55;3.85;;;;;;;;;;5993842;23;20037;-50
2021/08/04 03:17:22;;;;;;;10.82;4.13;;;;;;;;;;5989760;23;20045;-51
2021/08/04 03:19:51;;;;;;;8.57;3.38;;;;;;;;;;6016334;23;20100;-53
2021/08/04 03:22:18;;;;;;;10.00;4.43;;;;;;;;;;5991893;23;20104;-49
2021/08/04 03:24:47;;;;;;;10.52;4.18;;;;;;;;;;5963029;23;20034;-48
2021/08/04 03:27:15;;;;;;;10.48;4.18;;;;;;;;;;5965839;23;20046;-52
2021/08/04 03:29:41;;;;;;;9.43;4.40;;;;;;;;;;5960883;24;20045;-47
2021/08/04 03:32:08;;;;;;;7.18;3.70;;;;;;;;;;5964258;24;20273;-49
2021/08/04 03:34:35;;;;;;;10.88;3.85;;;;;;;;;;5980680;23;20045;-50
2021/08/04 03:37:01;;;;;;;9.05;3.88;;;;;;;;;;5981778;23;20038;-49
2021/08/04 03:39:28;;;;;;;6.18;3.50;;;;;;;;;;5981536;23;20081;-48
2021/08/04 03:41:54;;;;;;;8.63;4.15;;;;;;;;;;5990050;23;20030;-51
2021/08/04 03:44:23;;;;;;;8.77;3.70;;;;;;;;;;5996841;23;20030;-48
2021/08/04 03:46:49;;;;;;;7.97;4.13;;;;;;;;;;5963916;23;20041;-49
2021/08/04 03:49:16;;;;;;;7.45;3.92;;;;;;;;;;5971224;23;20052;-47
2021/08/04 03:51:43;;;;;;;7.80;3.97;;;;;;;;;;5993150;23;20448;-51
2021/08/04 03:54:10;;;;;;;7.07;3.78;;;;;;;;;;5983373;23;20065;-52
2021/08/04 03:56:36;;;;;;;12.25;3.72;;;;;;;;;;5966227;24;20034;-50
2021/08/04 03:59:03;;;;;;;8.68;4.05;;;;;;;;;;5964450;24;20030;-47
2021/08/04 04:01:31;;;;;;;10.40;4.00;;;;;;;;;;5981033;23;20133;-52
2021/08/04 04:04:00;;;;;;;7.50;3.45;;;;;;;;;;5965224;24;20059;-48
2021/08/04 04:06:26;;;;;;;9.52;4.35;;;;;;;;;;5961760;24;20038;-52
2021/08/04 04:08:53;;;;;;;9.15;4.68;;;;;;;;;;5967010;24;20027;-49
2021/08/04 04:11:19;;;;;;;8.43;3.95;;;;;;;;;;5985486;23;20531;-47
2021/08/04 04:13:47;;;;;;;9.68;4.10;;;;;;;;;;5995226;23;20045;-47
2021/08/04 04:16:14;;;;;;;8.70;4.25;;;;;;;;;;5991510;23;20033;-47
2021/08/04 04:18:43;;;;;;;10.13;4.22;;;;;;;;;;5997022;23;20030;-47
2021/08/04 04:21:11;;;;;;;8.90;4.10;;;;;;;;;;5997228;23;20070;-47
2021/08/04 04:23:38;;;;;;;10.55;4.13;;;;;;;;;;5949898;24;20280;-50
2021/08/04 04:26:04;;;;;;;13.55;4.00;;;;;;;;;;5987016;23;20038;-49
2021/08/04 04:28:31;;;;;;;9.10;3.97;;;;;;;;;;5963951;24;20030;-49
2021/08/04 04:30:58;;;;;;;11.02;3.75;;;;;;;;;;5973596;24;20066;-49
2021/08/04 04:33:25;;;;;;;7.93;4.20;;;;;;;;;;6014421;23;20046;-46
2021/08/04 04:35:53;;;;;;;10.88;4.20;;;;;;;;;;5981364;23;20125;-53
2021/08/04 04:38:19;;;;;;;8.57;3.97;;;;;;;;;;5963649;23;20041;-47
2021/08/04 04:40:46;;;;;;;7.70;3.50;;;;;;;;;;5964384;23;20038;-51
2021/08/04 04:43:12;;;;;;;9.88;4.05;;;;;;;;;;5990276;23;20034;-51
2021/08/04 04:45:39;;;;;;;10.70;3.67;;;;;;;;;;5989662;23;20167;-50
2021/08/04 04:48:06;;;;;;;7.18;3.72;;;;;;;;;;5961619;23;20046;-50
2021/08/04 04:50:34;;;;;;;7.28;3.80;;;;;;;;;;5962821;23;20061;-52
2021/08/04 04:53:02;;;;;;;9.95;4.68;;;;;;;;;;5948398;23;20038;-48
2021/08/04 04:55:30;;;;;;;7.43;3.72;;;;;;;;;;5965651;23;20075;-48
2021/08/04 04:57:57;;;;;;;7.18;3.78;;;;;;;;;;5966040;23;20042;-52
2021/08/04 05:00:23;;;;;;;8.63;4.03;;;;;;;;;;5964851;24;20589;-50
2021/08/04 05:02:52;;;;;;;12.43;4.63;;;;;;;;;;5964524;24;20050;-51
2021/08/04 05:05:19;;;;;;;12.32;5.55;;;;;;;;;;5982457;23;20042;-47
2021/08/04 05:07:45;;;;;;;8.25;4.57;;;;;;;;;;5985291;23;20068;-49
2021/08/04 05:10:13;;;;;;;8.85;4.70;;;;;;;;;;5988764;23;20038;-51
2021/08/04 05:12:40;;;;;;;7.32;4.00;;;;;;;;;;5988568;23;20116;-51
2021/08/04 05:15:08;;;;;;;9.63;3.95;;;;;;;;;;5985691;23;20484;-50
2021/08/04 05:17:37;;;;;;;10.57;4.07;;;;;;;;;;5987971;23;20057;-51
2021/08/04 05:20:04;;;;;;;9.23;4.15;;;;;;;;;;5990291;23;20034;-48
2021/08/04 05:22:31;;;;;;;8.15;3.95;;;;;;;;;;6006453;23;20037;-48
2021/08/04 05:24:59;;;;;;;7.00;4.10;;;;;;;;;;6012355;23;20049;-51
2021/08/04 05:27:27;;;;;;;8.20;3.97;;;;;;;;;;6009830;23;20042;-50
2021/08/04 05:29:53;;;;;;;8.33;4.20;;;;;;;;;;5987168;23;20049;-50
2021/08/04 05:32:20;;;;;;;7.53;3.97;;;;;;;;;;6012161;23;20379;-51
2021/08/04 05:34:47;;;;;;;9.00;4.30;;;;;;;;;;5982296;23;20042;-53
2021/08/04 05:37:13;;;;;;;10.75;4.50;;;;;;;;;;5985403;23;20049;-52
2021/08/04 05:39:39;;;;;;;10.25;4.53;;;;;;;;;;5983937;23;20232;-51
2021/08/04 05:42:06;;;;;;;10.65;4.55;;;;;;;;;;5991515;23;20042;-47
2021/08/04 05:44:37;;;;;;;12.30;4.57;;;;;;;;;;5983474;23;20106;-51
2021/08/04 05:47:04;;;;;;;9.55;4.18;;;;;;;;;;5991089;23;20046;-47
2021/08/04 05:49:30;;;;;;;9.00;4.47;;;;;;;;;;5985289;23;20030;-47
2021/08/04 05:51:57;;;;;;;8.70;4.85;;;;;;;;;;5994976;23;20057;-47
2021/08/04 05:54:25;;;;;;;13.38;5.43;;;;;;;;;;5982933;23;20037;-50
2021/08/04 05:56:52;;;;;;;;;;;;;;;;;;5988190;23;20037;-48
2021/08/04 05:59:18;;;;;;;13.10;6.03;;;;;;;;;;5979921;23;19913;-49
2021/08/04 06:01:46;;;;;;;16.67;6.97;;;;;;;;;;6010556;23;20046;-50
2021/08/04 06:04:13;;;;;;;10.07;5.53;;;;;;;;;;5982436;23;20053;-48
2021/08/04 06:06:39;;;;;;;10.05;4.72;;;;;;;;;;6007741;23;20034;-48
2021/08/04 06:09:06;;;;;;;9.52;4.78;;;;;;;;;;5981593;23;20113;-49
2021/08/04 06:11:33;;;;;;;14.05;4.53;;;;;;;;;;5987001;23;20115;-51
2021/08/04 06:14:00;;;;;;;7.88;4.22;;;;;;;;;;5987942;23;20049;-51
2021/08/04 06:16:26;;;;;;;9.70;4.38;;;;;;;;;;5971766;23;20044;-50
2021/08/04 06:18:57;;;;;;;9.10;4.18;;;;;;;;;;5963311;24;20026;-51
2021/08/04 06:21:27;;;;;;;10.35;4.50;;;;;;;;;;5984170;23;20034;-50
2021/08/04 06:23:54;;;;;;;8.50;4.10;;;;;;;;;;5991843;23;20139;-48
2021/08/04 06:26:20;;;;;;;8.88;4.63;;;;;;;;;;5968099;23;20327;-49
2021/08/04 06:28:48;;;;;;;9.32;4.15;;;;;;;;;;5966436;23;20042;-50
2021/08/04 06:31:14;;;;;;;11.57;4.00;;;;;;;;;;6000701;23;20044;-51
2021/08/04 06:33:43;;;;;;;11.07;4.78;;;;;;;;;;6016255;23;20038;-53
2021/08/04 06:36:09;;;;;;;;;;;;;;;;;;5989448;23;20078;-51
2021/08/04 06:38:37;;;;;;;8.68;4.20;;;;;;;;;;6013729;23;19921;-48
2021/08/04 06:41:04;;;;;;;11.20;5.03;;;;;;;;;;5991290;23;20022;-51
2021/08/04 06:43:31;;;;;;;10.65;4.80;;;;;;;;;;5991977;23;20283;-50
2021/08/04 06:45:57;;;;;;;8.15;4.38;;;;;;;;;;5985232;23;20038;-51
2021/08/04 06:48:24;;;;;;;11.77;4.95;;;;;;;;;;5988006;23;20078;-48
2021/08/04 06:50:50;;;;;;;9.50;4.28;;;;;;;;;;5990166;23;20112;-50
2021/08/04 06:53:17;;;;;;;8.85;4.45;;;;;;;;;;5992088;23;20038;-50
2021/08/04 06:55:50;;;;;;;8.02;4.40;;;;;;;;;;6014544;23;20120;-47
2021/08/04 06:58:16;;;;;;;9.93;4.05;;;;;;;;;;5991894;23;20038;-49
2021/08/04 07:00:42;;;;;;;9.02;4.53;;;;;;;;;;5990463;23;20049;-47
2021/08/04 07:03:09;;;;;;;11.60;4.40;;;;;;;;;;5962674;23;20041;-49
2021/08/04 07:05:36;;;;;;;9.48;4.57;;;;;;;;;;5962873;24;20022;-49
2021/08/04 07:08:02;;;;;;;7.40;3.67;;;;;;;;;;5985592;23;20115;-51
2021/08/04 07:10:29;;;;;;;8.75;4.25;;;;;;;;;;5991843;23;20030;-48
2021/08/04 07:12:58;;;;;;;11.30;4.65;;;;;;;;;;5966525;23;20030;-49
2021/08/04 07:15:25;;;;;;;9.95;4.05;;;;;;;;;;5963153;23;20031;-50
2021/08/04 07:17:52;;;;;;;9.50;3.97;;;;;;;;;;5976161;23;20495;-48
2021/08/04 07:20:20;;;;;;;12.38;6.00;;;;;;;;;;6017218;23;20026;-47
2021/08/04 07:22:47;;;;;;;11.05;5.80;;;;;;;;;;6004879;23;20029;-50
2021/08/04 07:25:14;;;;;;;8.18;4.03;;;;;;;;;;5994841;23;20037;-52
2021/08/04 07:27:41;;;;;;;9.55;4.45;;;;;;;;;;5991910;23;20046;-51
2021/08/04 07:30:10;;;;;;;8.00;4.28;;;;;;;;;;5991946;23;20062;-49
2021/08/04 07:32:36;;;;;;;8.90;3.92;;;;;;;;;;5983979;23;20042;-51
2021/08/04 07:35:04;;;;;;;10.57;4.35;;;;;;;;;;5966613;23;20109;-50
2021/08/04 07:37:30;;;;;;;7.85;4.03;;;;;;;;;;6013044;23;20135;-52
2021/08/04 07:39:57;;;;;;;8.50;4.07;;;;;;;;;;5993159;23;20034;-51
2021/08/04 07:42:24;;;;;;;7.90;4.10;;;;;;;;;;5992195;23;20034;-50
2021/08/04 07:44:51;;;;;;;8.95;4.40;;;;;;;;;;5984982;23;20485;-50
2021/08/04 07:47:19;;;;;;;9.18;4.20;;;;;;;;;;5989062;23;20030;-50
2021/08/04 07:49:45;;;;;;;9.68;3.80;;;;;;;;;;6006914;23;20030;-53
2021/08/04 07:52:12;;;;;;;8.88;3.20;;;;;;;;;;5993061;23;20037;-48
2021/08/04 07:54:39;;;;;;;9.77;3.42;;;;;;;;;;5990823;23;20022;-51
2021/08/04 07:57:06;;;;;;;8.63;3.63;;;;;;;;;;5995661;23;20026;-48
2021/08/04 07:59:32;;;;;;;10.48;4.25;;;;;;;;;;5989847;23;20049;-49
2021/08/04 08:01:59;;;;;;;7.93;3.70;;;;;;;;;;5993173;23;20029;-52
2021/08/04 08:04:27;;;;;;;5.25;2.70;;;;;;;;;;5978528;23;20031;-52
2021/08/04 08:06:53;;;;;;;7.40;3.63;;;;;;;;;;5963770;24;20027;-51
2021/08/04 08:09:21;;;;;;;12.63;5.78;;;;;;;;;;5971844;23;20030;-51
2021/08/04 08:11:48;;;;;;;9.45;3.70;;;;;;;;;;5990891;23;20026;-53
2021/08/04 08:14:15;;;;;;;6.53;2.83;;;;;;;;;;5985523;23;20026;-50
2021/08/04 08:16:41;;;;;;;7.18;3.17;;;;;;;;;;5988308;23;20033;-51
2021/08/04 08:19:08;;;;;;;6.43;2.92;;;;;;;;;;5987564;23;20038;-51
2021/08/04 08:21:36;;;;;;;7.82;2.58;;;;;;;;;;5994706;23;20041;-52
2021/08/04 08:24:03;;;;;;;9.10;2.78;;;;;;;;;;5994406;23;20030;-50
2021/08/04 08:26:29;;;;;;;7.40;2.65;;;;;;;;;;5986150;23;20074;-51
2021/08/04 08:28:55;;;;;;;9.43;2.80;;;;;;;;;;5988788;23;20035;-49
2021/08/04 08:31:22;;;;;;;8.20;3.00;;;;;;;;;;5995806;23;20041;-53
2021/08/04 08:33:52;;;;;;;6.63;2.65;;;;;;;;;;5993317;23;20034;-51
2021/08/04 08:36:18;;;;;;;6.32;2.45;;;;;;;;;;5970456;23;20120;-50
2021/08/04 08:38:46;;;;;;;4.47;2.42;;;;;;;;;;5966343;24;20125;-50
2021/08/04 08:41:13;;;;;;;6.80;2.75;;;;;;;;;;5962489;24;20171;-52
2021/08/04 08:43:40;;;;;;;5.82;2.95;;;;;;;;;;5964802;24;20045;-50
2021/08/04 08:46:06;;;;;;;5.70;2.65;;;;;;;;;;5985455;23;20104;-53
2021/08/04 08:48:33;;;;;;;5.68;2.67;;;;;;;;;;5994424;23;20120;-48
2021/08/04 08:50:59;;;;;;;6.70;2.95;;;;;;;;;;5982825;23;20034;-50
2021/08/04 08:53:26;;;;;;;5.75;2.72;;;;;;;;;;5990006;23;20049;-49
2021/08/04 08:55:54;;;;;;;4.35;2.22;;;;;;;;;;5989016;23;20058;-51
2021/08/04 08:58:21;;;;;;;5.40;2.35;;;;;;;;;;5968101;23;20030;-54
2021/08/04 09:00:47;;;;;;;8.00;2.00;;;;;;;;;;5966757;23;20031;-51
2021/08/04 09:03:14;;;;;;;4.88;1.90;;;;;;;;;;5990420;23;20034;-54
2021/08/04 09:05:50;;;;;;;5.03;2.03;;;;;;;;;;5992074;23;20050;-52
2021/08/04 09:08:23;;;;;;;3.67;1.90;;;;;;;;;;5962654;24;20070;-50
2021/08/04 09:10:53;;;;;;;10.73;5.05;;;;;;;;;;5973654;23;20048;-49
2021/08/04 09:13:29;;;;;;;9.40;3.30;;;;;;;;;;6012363;23;20044;-49
2021/08/04 09:16:00;;;;;;;5.03;1.90;;;;;;;;;;5991859;23;20042;-53
2021/08/04 09:18:37;;;;;;;5.70;2.20;;;;;;;;;;5961970;23;20034;-52
2021/08/04 09:21:04;;;;;;;4.50;1.92;;;;;;;;;;5962906;23;20050;-49
2021/08/04 09:23:31;;;;;;;3.80;1.70;;;;;;;;;;5986710;23;20038;-52
2021/08/04 09:26:05;;;;;;;4.07;1.60;;;;;;;;;;5990989;23;20150;-48
2021/08/04 09:28:50;;;;;;;4.60;1.90;;;;;;;;;;5982267;23;20029;-49
2021/08/04 09:31:17;;;;;;;3.47;1.60;;;;;;;;;;5964229;23;20112;-50
2021/08/04 09:33:43;;;;;;;6.18;1.67;;;;;;;;;;5984658;23;20037;-53
2021/08/04 09:36:10;;;;;;;7.18;2.03;;;;;;;;;;5993432;23;20136;-50
2021/08/04 09:38:36;;;;;;;6.25;2.20;;;;;;;;;;5986139;23;20038;-50
2021/08/04 09:41:10;;;;;;;4.30;2.03;;;;;;;;;;6002428;23;20062;-52
2021/08/04 09:43:39;;;;;;;4.55;1.80;;;;;;;;;;5990642;23;20100;-51
2021/08/04 09:46:05;;;;;;;;;;;;;;;;;;5992349;23;20095;-51
2021/08/04 09:48:32;;;;;;;4.32;2.00;;;;;;;;;;5989293;23;19932;-53
2021/08/04 09:51:00;;;;;;;8.93;2.33;;;;;;;;;;5992116;23;20038;-51
2021/08/04 09:53:28;;;;;;;4.10;1.98;;;;;;;;;;5990045;23;20030;-52
2021/08/04 09:56:18;;;;;;;5.65;2.00;;;;;;;;;;5993915;23;20036;-53
2021/08/04 09:58:47;;;;;;;8.10;2.50;;;;;;;;;;5966039;23;20034;-51
2021/08/04 10:01:14;;;;;;;;;;;;;;;;;;5965585;24;20038;-52
2021/08/04 10:03:56;;;;;;;4.13;1.83;;;;;;;;;;5969034;23;19928;-54
2021/08/04 10:06:22;;;;;;;3.97;1.80;;;;;;;;;;5991826;23;20034;-52
2021/08/04 10:08:48;;;;;;;7.25;2.20;;;;;;;;;;5990954;23;20033;-51
2021/08/04 10:11:15;;;;;;;8.30;2.10;;;;;;;;;;5992968;23;20041;-51
2021/08/04 10:13:43;;;;;;;6.50;2.10;;;;;;;;;;5991159;23;20053;-51
2021/08/04 10:16:11;;;;;;;7.82;2.20;;;;;;;;;;5993591;23;20046;-51
2021/08/04 10:18:39;;;;;;;7.53;2.10;;;;;;;;;;5989173;23;20080;-52
2021/08/04 10:21:08;;;;;;;;;;;;;;;;;;5994250;23;20081;-51
2021/08/04 10:23:35;;;;;;;6.22;1.88;;;;;;;;;;6013461;23;19925;-52
2021/08/04 10:26:01;;;;;;;4.53;1.60;;;;;;;;;;5965124;23;20092;-52
2021/08/04 10:28:29;;;;;;;5.70;2.30;;;;;;;;;;5966885;24;20121;-53
2021/08/04 10:30:57;;;;;;;4.63;1.93;;;;;;;;;;5961473;24;20037;-51
2021/08/04 10:33:25;;;;;;;4.90;2.13;;;;;;;;;;5967697;24;20275;-55
2021/08/04 10:35:53;;;;;;;7.20;2.22;;;;;;;;;;5963896;24;20038;-53
2021/08/04 10:38:20;;;;;;;6.50;2.00;;;;;;;;;;5964770;24;20155;-52
2021/08/04 10:40:47;;;;;;;5.75;2.33;;;;;;;;;;5966667;23;20034;-52
2021/08/04 10:43:28;;;;;;;6.10;2.78;;;;;;;;;;5962477;23;20101;-52
2021/08/04 10:45:54;;;;;;;4.93;2.20;;;;;;;;;;5960362;23;22274;-52
2021/08/04 10:48:23;;;;;;;5.03;2.60;;;;;;;;;;5962698;23;20034;-50
2021/08/04 10:51:09;;;;;;;7.70;2.47;;;;;;;;;;5973662;23;20046;-52
2021/08/04 10:53:57;;;;;;;7.55;2.50;;;;;;;;;;5993469;23;20069;-52
2021/08/04 10:56:23;;;;;;;4.68;1.73;;;;;;;;;;6005517;23;20102;-49
2021/08/04 10:59:22;;;;;;;5.03;1.98;;;;;;;;;;5964896;23;20041;-54
2021/08/04 11:01:49;;;;;;;5.82;2.03;;;;;;;;;;5960663;23;20026;-52
2021/08/04 11:04:43;;;;;;;4.63;2.00;;;;;;;;;;5963138;24;20037;-51
2021/08/04 11:07:12;;;;;;;6.18;1.80;;;;;;;;;;5959696;24;20026;-51
2021/08/04 11:09:39;;;;;;;3.33;1.50;;;;;;;;;;5966113;24;20046;-53
2021/08/04 11:12:07;;;;;;;5.53;2.10;;;;;;;;;;5991277;23;20100;-50
2021/08/04 11:14:38;;;;;;;5.45;1.90;;;;;;;;;;5978674;23;20033;-54
2021/08/04 11:17:05;;;;;;;3.80;1.73;;;;;;;;;;5990365;23;20078;-53
2021/08/04 11:19:34;;;;;;;3.85;1.73;;;;;;;;;;6015014;23;20040;-51
2021/08/04 11:22:16;;;;;;;6.70;2.28;;;;;;;;;;5982009;23;20042;-51
2021/08/04 11:24:54;;;;;;;8.43;3.08;;;;;;;;;;5965539;23;20045;-54
2021/08/04 11:27:20;;;;;;;7.43;2.53;;;;;;;;;;5983739;23;20048;-52
2021/08/04 11:29:47;;;;;;;7.70;2.38;;;;;;;;;;5994204;23;20088;-53
2021/08/04 11:32:17;;;;;;;4.38;2.13;;;;;;;;;;5989161;23;20041;-54
2021/08/04 11:34:44;;;;;;;3.67;1.88;;;;;;;;;;5995285;23;20041;-51
2021/08/04 11:37:11;;;;;;;5.93;2.63;;;;;;;;;;5984891;23;20197;-55
2021/08/04 11:39:51;;;;;;;6.75;2.00;;;;;;;;;;5981522;23;20156;-50
2021/08/04 11:42:18;;;;;;;4.30;1.80;;;;;;;;;;5990426;23;20034;-54
2021/08/04 11:44:44;;;;;;;4.60;1.85;;;;;;;;;;5994655;23;20441;-53
2021/08/04 11:47:11;;;;;;;4.45;1.88;;;;;;;;;;5991701;23;20108;-54
2021/08/04 11:49:38;;;;;;;4.35;1.73;;;;;;;;;;5991889;23;20034;-53
2021/08/04 11:52:05;;;;;;;4.95;1.60;;;;;;;;;;5993839;23;20037;-56
2021/08/04 11:54:37;;;;;;;5.53;2.13;;;;;;;;;;5964471;23;20042;-54
2021/08/04 11:57:07;;;;;;;4.10;1.90;;;;;;;;;;5989444;23;20053;-52
2021/08/04 11:59:41;;;;;;;5.10;2.08;;;;;;;;;;5964067;24;20111;-52
2021/08/04 12:02:08;;;;;;;3.72;1.58;;;;;;;;;;5964957;24;20038;-52
2021/08/04 12:04:41;;;;;;;6.55;1.95;;;;;;;;;;5987206;23;20077;-55
2021/08/04 12:07:08;;;;;;;10.35;2.65;;;;;;;;;;5993903;23;20030;-55
2021/08/04 12:09:35;;;;;;;7.80;2.03;;;;;;;;;;5975680;23;20158;-54
2021/08/04 12:12:03;;;;;;;5.55;1.83;;;;;;;;;;5994053;23;20108;-55
2021/08/04 12:14:34;;;;;;;5.38;2.00;;;;;;;;;;5993667;23;20030;-56
2021/08/04 12:17:01;;;;;;;4.70;2.13;;;;;;;;;;5992411;23;20070;-53
2021/08/04 12:19:38;;;;;;;6.47;2.90;;;;;;;;;;5985019;23;20112;-53
2021/08/04 12:22:06;;;;;;;6.00;2.25;;;;;;;;;;5987650;23;20049;-55
2021/08/04 12:24:40;;;;;;;4.65;2.47;;;;;;;;;;5994183;23;20038;-54
2021/08/04 12:27:06;;;;;;;5.10;2.33;;;;;;;;;;5960852;23;20049;-52
2021/08/04 12:29:35;;;;;;;5.20;2.25;;;;;;;;;;5963412;23;20053;-54
2021/08/04 12:32:07;;;;;;;9.98;2.72;;;;;;;;;;5963249;23;20089;-53
2021/08/04 12:34:42;;;;;;;6.05;2.25;;;;;;;;;;5968400;23;20030;-55
2021/08/04 12:37:09;;;;;;;5.75;2.05;;;;;;;;;;6015037;23;20040;-52
2021/08/04 12:39:38;;;;;;;10.10;2.75;;;;;;;;;;5981796;24;20022;-56
2021/08/04 12:42:04;;;;;;;7.15;3.60;;;;;;;;;;5990104;23;20022;-54
2021/08/04 12:44:32;;;;;;;8.65;3.75;;;;;;;;;;5989672;23;20030;-52
2021/08/04 12:47:07;;;;;;;9.35;4.03;;;;;;;;;;5995524;23;20026;-53
2021/08/04 12:49:33;;;;;;;12.02;4.28;;;;;;;;;;5990316;23;20038;-55
2021/08/04 12:52:00;;;;;;;10.20;3.38;;;;;;;;;;6016662;23;20038;-54
2021/08/04 12:54:28;;;;;;;6.45;2.97;;;;;;;;;;6015633;23;20112;-55
2021/08/04 12:56:55;;;;;;;6.97;2.75;;;;;;;;;;5988787;23;20127;-51
2021/08/04 12:59:22;;;;;;;9.60;3.35;;;;;;;;;;5995137;23;20034;-55
2021/08/04 13:01:50;;;;;;;5.70;2.60;;;;;;;;;;5990582;23;20030;-55
2021/08/04 13:04:18;;;;;;;5.30;2.25;;;;;;;;;;5993217;23;20034;-54
2021/08/04 13:06:49;;;;;;;6.25;2.75;;;;;;;;;;5969302;24;20026;-54
2021/08/04 13:09:16;;;;;;;6.07;2.47;;;;;;;;;;5964663;24;20041;-55
2021/08/04 13:11:43;;;;;;;6.65;3.13;;;;;;;;;;5963930;23;20031;-51
2021/08/04 13:14:10;;;;;;;9.98;4.47;;;;;;;;;;5964804;24;20037;-55
2021/08/04 13:16:38;;;;;;;8.20;3.28;;;;;;;;;;5962985;24;20053;-53
2021/08/04 13:19:16;;;;;;;5.25;2.67;;;;;;;;;;5965390;24;20041;-53
2021/08/04 13:21:58;;;;;;;6.05;2.50;;;;;;;;;;5975160;24;20077;-54
2021/08/04 13:24:33;;;;;;;4.45;2.22;;;;;;;;;;6014654;23;20034;-55
2021/08/04 13:26:59;;;;;;;5.75;2.38;;;;;;;;;;5983530;23;20085;-54
2021/08/04 13:29:31;;;;;;;8.15;2.50;;;;;;;;;;5965458;23;20049;-52
2021/08/04 13:31:57;;;;;;;6.20;2.30;;;;;;;;;;5980026;23;20044;-56
2021/08/04 13:34:24;;;;;;;5.15;2.28;;;;;;;;;;5965786;24;20022;-56
2021/08/04 13:36:52;;;;;;;7.40;2.30;;;;;;;;;;5972412;23;20042;-55
2021/08/04 13:39:19;;;;;;;8.77;2.57;;;;;;;;;;5991893;23;20033;-52
2021/08/04 13:41:47;;;;;;;4.63;1.95;;;;;;;;;;5987601;23;20268;-55
2021/08/04 13:44:14;;;;;;;6.55;2.22;;;;;;;;;;5994387;23;20065;-53
2021/08/04 13:46:40;;;;;;;4.30;2.25;;;;;;;;;;5991555;23;20026;-56
2021/08/04 13:49:07;;;;;;;4.15;2.20;;;;;;;;;;5994797;23;20034;-53
2021/08/04 13:51:33;;;;;;;4.22;2.15;;;;;;;;;;5995568;23;20104;-54
2021/08/04 13:54:00;;;;;;;5.03;2.30;;;;;;;;;;5992943;23;20045;-53
2021/08/04 13:56:27;;;;;;;4.80;2.20;;;;;;;;;;5992230;23;20108;-54
2021/08/04 13:58:55;;;;;;;6.90;2.90;;;;;;;;;;5969931;23;20041;-49
2021/08/04 14:01:21;;;;;;;5.10;2.42;;;;;;;;;;5963140;23;20026;-52
2021/08/04 14:03:48;;;;;;;4.60;2.70;;;;;;;;;;5977795;23;20033;-52
2021/08/04 14:06:14;;;;;;;4.60;2.20;;;;;;;;;;5990815;23;20034;-55
2021/08/04 14:08:41;;;;;;;9.15;2.42;;;;;;;;;;5982608;23;20036;-54
2021/08/04 14:11:08;;;;;;;8.82;2.50;;;;;;;;;;5985815;23;20065;-52
2021/08/04 14:13:35;;;;;;;6.63;2.55;;;;;;;;;;5973855;23;20030;-52
2021/08/04 14:16:02;;;;;;;7.45;2.53;;;;;;;;;;5989884;23;20044;-54
2021/08/04 14:18:29;;;;;;;4.57;2.17;;;;;;;;;;5981657;23;20041;-52
2021/08/04 14:20:55;;;;;;;6.38;2.58;;;;;;;;;;5987784;23;20046;-54
2021/08/04 14:23:24;;;;;;;5.70;2.42;;;;;;;;;;5986287;23;20030;-56
2021/08/04 14:25:50;;;;;;;6.55;2.25;;;;;;;;;;5991929;23;20034;-55
2021/08/04 14:28:17;;;;;;;8.00;2.20;;;;;;;;;;5992144;23;20030;-58
2021/08/04 14:30:43;;;;;;;6.80;2.15;;;;;;;;;;5961897;23;20032;-54
2021/08/04 14:33:11;;;;;;;3.97;1.95;;;;;;;;;;5988573;23;20026;-57
2021/08/04 14:35:38;;;;;;;4.75;1.98;;;;;;;;;;5985101;23;20066;-55
2021/08/04 14:38:05;;;;;;;6.07;2.10;;;;;;;;;;5992865;23;20161;-52
2021/08/04 14:40:31;;;;;;;7.13;1.75;;;;;;;;;;5984424;23;20085;-52
2021/08/04 14:42:58;;;;;;;4.50;1.95;;;;;;;;;;5985704;23;20030;-53
2021/08/04 14:45:24;;;;;;;5.03;1.80;;;;;;;;;;6002845;23;20049;-54
2021/08/04 14:47:51;;;;;;;6.93;1.85;;;;;;;;;;5991776;23;20115;-53